createdAt,value
2018-07-31T00:02:27.540Z,99.90
2018-07-31T00:04:56.064Z,99.90
2018-07-31T00:07:24.624Z,99.90
2018-07-31T00:09:53.173Z,99.90
2018-07-31T00:12:21.799Z,99.90
2018-07-31T00:14:50.373Z,99.90
2018-07-31T00:17:18.878Z,99.90
2018-07-31T00:19:47.413Z,99.90
2018-07-31T00:22:15.916Z,99.90
2018-07-31T00:24:44.444Z,99.90
2018-07-31T00:27:13.031Z,99.90
2018-07-31T00:29:41.564Z,99.90
2018-07-31T00:32:10.165Z,99.90
2018-07-31T00:34:38.637Z,99.90
2018-07-31T00:37:07.166Z,99.90
2018-07-31T00:39:35.740Z,99.90
2018-07-31T00:42:04.304Z,99.90
2018-07-31T00:44:32.786Z,99.90
2018-07-31T00:47:01.299Z,99.90
2018-07-31T00:49:29.813Z,99.90
2018-07-31T00:51:58.359Z,99.90
2018-07-31T00:54:26.873Z,99.90
2018-07-31T00:56:55.423Z,99.90
2018-07-31T00:59:23.905Z,99.90
2018-07-31T01:01:52.724Z,99.90
2018-07-31T01:04:21.249Z,99.90
2018-07-31T01:06:49.841Z,99.90
2018-07-31T01:09:18.440Z,99.90
2018-07-31T01:11:46.961Z,99.90
2018-07-31T01:14:15.445Z,99.90
2018-07-31T01:16:44.105Z,99.90
2018-07-31T01:19:12.667Z,99.90
2018-07-31T01:21:41.593Z,99.90
2018-07-31T01:24:10.784Z,99.90
2018-07-31T01:26:39.333Z,99.90
2018-07-31T01:29:07.905Z,99.90
2018-07-31T01:31:36.433Z,99.90
2018-07-31T01:34:05.002Z,99.90
2018-07-31T01:36:33.489Z,99.90
2018-07-31T01:39:02.109Z,99.90
2018-07-31T01:41:30.693Z,99.90
2018-07-31T01:43:59.225Z,99.90
2018-07-31T01:46:27.729Z,99.90
2018-07-31T01:48:56.233Z,99.90
2018-07-31T01:51:24.724Z,99.90
2018-07-31T01:53:53.242Z,99.90
2018-07-31T01:56:21.728Z,99.90
2018-07-31T01:58:50.329Z,99.90
2018-07-31T02:01:18.837Z,99.90
2018-07-31T02:03:47.361Z,99.90
2018-07-31T02:06:15.959Z,99.90
2018-07-31T02:08:44.455Z,99.90
2018-07-31T02:11:12.960Z,99.90
2018-07-31T02:13:41.469Z,99.90
2018-07-31T02:16:09.944Z,99.90
2018-07-31T02:18:38.505Z,99.90
2018-07-31T02:21:07.126Z,99.90
2018-07-31T02:23:35.601Z,99.90
2018-07-31T02:26:04.158Z,99.90
2018-07-31T02:28:32.693Z,99.90
2018-07-31T02:31:01.194Z,99.90
2018-07-31T02:35:57.944Z,99.90
2018-07-31T02:38:26.470Z,99.90
2018-07-31T02:40:55.003Z,99.90
2018-07-31T02:43:23.521Z,99.90
2018-07-31T02:45:52.097Z,99.90
2018-07-31T02:48:20.577Z,99.90
2018-07-31T02:50:49.161Z,99.90
2018-07-31T02:53:17.746Z,99.90
2018-07-31T02:55:46.832Z,99.90
2018-07-31T02:58:15.398Z,99.90
2018-07-31T03:00:43.899Z,99.90
2018-07-31T03:03:12.393Z,99.90
2018-07-31T03:05:40.931Z,99.90
2018-07-31T03:08:09.609Z,99.90
2018-07-31T03:10:38.242Z,99.90
2018-07-31T03:13:06.713Z,99.90
2018-07-31T03:15:35.213Z,99.90
2018-07-31T03:18:03.746Z,99.90
2018-07-31T03:20:32.221Z,99.90
2018-07-31T03:23:00.742Z,99.90
2018-07-31T03:25:29.285Z,99.90
2018-07-31T03:27:57.867Z,99.90
2018-07-31T03:30:26.450Z,99.90
2018-07-31T03:32:54.975Z,99.90
2018-07-31T03:35:23.453Z,99.90
2018-07-31T03:37:52.029Z,99.90
2018-07-31T03:40:20.528Z,99.90
2018-07-31T03:42:49.051Z,99.90
2018-07-31T03:45:17.569Z,99.90
2018-07-31T03:47:46.101Z,99.90
2018-07-31T03:50:14.592Z,99.90
2018-07-31T03:52:43.136Z,99.90
2018-07-31T03:55:11.678Z,99.90
2018-07-31T03:57:40.186Z,99.90
2018-07-31T04:00:08.717Z,99.90
2018-07-31T04:02:37.302Z,99.90
2018-07-31T04:05:05.837Z,99.90
2018-07-31T04:07:34.307Z,99.90
2018-07-31T04:10:02.864Z,99.90
2018-07-31T04:12:31.385Z,99.90
2018-07-31T04:14:59.923Z,99.90
2018-07-31T04:17:28.486Z,99.90
2018-07-31T04:19:57.020Z,99.90
2018-07-31T04:22:25.510Z,99.90
2018-07-31T04:24:54.089Z,99.90
2018-07-31T04:27:22.611Z,99.90
2018-07-31T04:29:51.186Z,99.90
2018-07-31T04:32:19.701Z,99.90
2018-07-31T04:34:48.297Z,99.90
2018-07-31T04:37:16.824Z,99.90
2018-07-31T04:39:45.365Z,99.90
2018-07-31T04:42:13.929Z,99.90
2018-07-31T04:44:42.457Z,99.90
2018-07-31T04:47:10.989Z,99.90
2018-07-31T04:49:39.516Z,99.90
2018-07-31T04:52:07.977Z,99.90
2018-07-31T04:54:36.557Z,99.90
2018-07-31T04:57:05.317Z,99.90
2018-07-31T04:59:33.834Z,99.90
2018-07-31T05:02:02.438Z,99.90
2018-07-31T05:04:31.040Z,99.90
2018-07-31T05:06:59.514Z,99.90
2018-07-31T05:09:28.033Z,99.90
2018-07-31T05:11:56.558Z,99.90
2018-07-31T05:14:25.117Z,99.90
2018-07-31T05:16:53.613Z,99.90
2018-07-31T05:19:22.142Z,99.90
2018-07-31T05:21:50.701Z,99.90
2018-07-31T05:24:19.213Z,99.90
2018-07-31T05:26:47.801Z,99.90
2018-07-31T05:29:16.350Z,99.90
2018-07-31T05:31:44.878Z,99.90
2018-07-31T05:34:13.416Z,99.90
2018-07-31T05:36:41.999Z,99.90
2018-07-31T05:39:11.977Z,99.90
2018-07-31T05:41:40.697Z,99.90
2018-07-31T05:44:09.240Z,99.90
2018-07-31T05:46:38.771Z,99.90
2018-07-31T05:49:08.629Z,99.90
2018-07-31T05:54:05.370Z,99.90
2018-07-31T05:56:33.964Z,99.90
2018-07-31T05:59:02.479Z,99.90
2018-07-31T06:01:30.945Z,99.90
2018-07-31T06:03:59.454Z,99.90
2018-07-31T06:06:27.933Z,99.70
2018-07-31T06:08:56.513Z,94.40
2018-07-31T06:11:25.020Z,87.20
2018-07-31T06:13:53.541Z,74.80
2018-07-31T06:16:22.042Z,68.00
2018-07-31T06:18:50.617Z,60.20
2018-07-31T06:21:19.113Z,55.50
2018-07-31T06:23:47.649Z,51.60
2018-07-31T06:26:16.145Z,50.00
2018-07-31T06:28:44.771Z,50.30
2018-07-31T06:31:13.284Z,50.00
2018-07-31T06:33:41.821Z,52.00
2018-07-31T06:36:10.517Z,54.50
2018-07-31T06:38:39.111Z,58.50
2018-07-31T06:41:07.593Z,61.70
2018-07-31T06:43:36.201Z,63.40
2018-07-31T06:46:04.726Z,66.40
2018-07-31T06:48:33.266Z,69.70
2018-07-31T06:51:01.729Z,70.40
2018-07-31T06:53:30.251Z,71.80
2018-07-31T06:55:58.761Z,73.80
2018-07-31T06:58:27.327Z,75.20
2018-07-31T07:00:55.791Z,75.80
2018-07-31T07:03:24.585Z,76.40
2018-07-31T07:05:53.092Z,78.20
2018-07-31T07:08:21.606Z,78.90
2018-07-31T07:10:50.090Z,78.80
2018-07-31T07:13:18.611Z,77.70
2018-07-31T07:15:47.082Z,73.30
2018-07-31T07:18:15.615Z,69.00
2018-07-31T07:20:44.081Z,62.60
2018-07-31T07:23:12.659Z,60.00
2018-07-31T07:25:41.233Z,57.90
2018-07-31T07:28:09.779Z,55.40
2018-07-31T07:30:38.321Z,52.10
2018-07-31T07:33:06.817Z,50.10
2018-07-31T07:35:35.345Z,49.20
2018-07-31T07:38:04.057Z,48.70
2018-07-31T07:40:32.541Z,50.50
2018-07-31T07:43:01.092Z,47.90
2018-07-31T07:45:29.573Z,48.60
2018-07-31T07:47:58.126Z,49.40
2018-07-31T07:50:26.606Z,52.10
2018-07-31T07:52:55.073Z,52.10
2018-07-31T07:55:23.616Z,51.00
2018-07-31T07:57:52.111Z,48.60
2018-07-31T08:00:20.626Z,46.40
2018-07-31T08:02:49.106Z,46.90
2018-07-31T08:05:17.620Z,44.10
2018-07-31T08:07:46.130Z,44.40
2018-07-31T08:10:14.641Z,45.00
2018-07-31T08:12:43.149Z,45.40
2018-07-31T08:15:11.661Z,45.40
2018-07-31T08:17:40.176Z,47.50
2018-07-31T08:20:08.706Z,45.50
2018-07-31T08:22:37.317Z,43.60
2018-07-31T08:25:05.806Z,42.30
2018-07-31T08:27:34.388Z,43.20
2018-07-31T08:30:02.910Z,41.10
2018-07-31T08:32:31.472Z,39.30
2018-07-31T08:34:59.941Z,37.60
2018-07-31T08:37:28.462Z,36.40
2018-07-31T08:39:57.105Z,36.10
2018-07-31T08:42:25.613Z,35.60
2018-07-31T08:44:54.096Z,34.70
2018-07-31T08:47:22.605Z,32.10
2018-07-31T08:54:47.484Z,32.30
2018-07-31T08:57:16.021Z,32.10
2018-07-31T08:59:44.605Z,35.00
2018-07-31T09:02:13.089Z,36.90
2018-07-31T09:04:41.610Z,37.40
2018-07-31T09:07:10.111Z,38.80
2018-07-31T09:09:38.651Z,37.90
2018-07-31T09:12:07.177Z,37.40
2018-07-31T09:14:35.693Z,36.40
2018-07-31T09:17:04.173Z,36.10
2018-07-31T09:19:32.674Z,36.30
2018-07-31T09:22:01.282Z,36.20
2018-07-31T09:24:29.853Z,36.00
2018-07-31T09:26:58.422Z,35.50
2018-07-31T09:29:26.957Z,34.60
2018-07-31T09:31:55.556Z,32.30
2018-07-31T09:34:24.078Z,32.70
2018-07-31T09:36:52.558Z,32.10
2018-07-31T09:39:21.157Z,30.70
2018-07-31T09:41:49.705Z,32.20
2018-07-31T09:44:18.255Z,32.00
2018-07-31T09:46:46.764Z,30.90
2018-07-31T09:49:15.374Z,32.20
2018-07-31T09:51:43.865Z,32.80
2018-07-31T09:54:12.385Z,32.10
2018-07-31T09:56:40.905Z,30.00
2018-07-31T09:59:09.482Z,30.50
2018-07-31T10:01:37.987Z,32.70
2018-07-31T10:04:06.706Z,32.10
2018-07-31T10:06:35.190Z,33.00
2018-07-31T10:09:05.192Z,34.70
2018-07-31T10:11:33.686Z,35.90
2018-07-31T10:14:02.232Z,36.00
2018-07-31T10:16:30.745Z,37.40
2018-07-31T10:18:59.364Z,37.40
2018-07-31T10:21:27.897Z,37.50
2018-07-31T10:23:56.447Z,36.70
2018-07-31T10:26:24.937Z,36.80
2018-07-31T10:28:53.863Z,36.30
2018-07-31T10:31:22.380Z,35.80
2018-07-31T10:33:50.876Z,36.80
2018-07-31T10:36:19.414Z,36.10
2018-07-31T10:38:48.329Z,37.00
2018-07-31T10:41:16.881Z,37.10
2018-07-31T10:43:45.421Z,37.40
2018-07-31T10:46:14.013Z,38.60
2018-07-31T10:48:42.666Z,39.00
2018-07-31T10:51:11.301Z,40.40
2018-07-31T10:53:39.721Z,40.00
2018-07-31T10:56:08.297Z,40.80
2018-07-31T10:58:36.988Z,41.00
2018-07-31T11:01:05.419Z,41.60
2018-07-31T11:03:33.899Z,40.50
2018-07-31T11:06:02.418Z,40.10
2018-07-31T11:08:30.905Z,40.10
2018-07-31T11:10:59.444Z,40.30
2018-07-31T11:13:28.096Z,40.70
2018-07-31T11:15:56.612Z,40.60
2018-07-31T11:18:25.154Z,41.00
2018-07-31T11:20:53.775Z,40.50
2018-07-31T11:23:22.267Z,41.20
2018-07-31T11:25:50.871Z,41.00
2018-07-31T11:28:19.453Z,40.30
2018-07-31T11:30:48.137Z,40.90
2018-07-31T11:33:16.696Z,42.80
2018-07-31T11:35:45.473Z,43.20
2018-07-31T11:38:14.041Z,43.90
2018-07-31T11:40:42.802Z,44.40
2018-07-31T11:43:11.330Z,44.20
2018-07-31T11:45:39.857Z,44.40
2018-07-31T11:48:08.406Z,44.80
2018-07-31T11:50:36.961Z,45.10
2018-07-31T11:53:05.501Z,44.80
2018-07-31T11:55:34.014Z,43.90
2018-07-31T11:58:02.520Z,43.70
2018-07-31T12:00:31.031Z,43.50
2018-07-31T12:02:59.597Z,43.90
2018-07-31T12:05:28.174Z,44.10
2018-07-31T12:07:56.786Z,44.20
2018-07-31T12:10:25.326Z,44.20
2018-07-31T12:12:53.839Z,44.00
2018-07-31T12:15:22.366Z,43.80
2018-07-31T12:17:50.915Z,43.60
2018-07-31T12:20:19.399Z,43.80
2018-07-31T12:22:47.917Z,44.10
2018-07-31T12:25:16.513Z,43.30
2018-07-31T12:27:44.984Z,42.90
2018-07-31T12:30:13.577Z,42.30
2018-07-31T12:32:42.289Z,42.50
2018-07-31T12:35:11.357Z,41.20
2018-07-31T12:37:39.921Z,40.80
2018-07-31T12:40:08.574Z,40.60
2018-07-31T12:42:37.133Z,41.00
2018-07-31T12:45:05.605Z,41.10
2018-07-31T12:47:34.121Z,41.70
2018-07-31T12:50:02.740Z,42.10
2018-07-31T12:52:31.408Z,42.80
2018-07-31T12:54:59.933Z,42.50
2018-07-31T12:57:28.449Z,41.40
2018-07-31T12:59:56.955Z,41.20
2018-07-31T13:02:25.458Z,41.30
2018-07-31T13:04:53.972Z,40.70
2018-07-31T13:07:22.530Z,41.00
2018-07-31T13:09:51.037Z,41.50
2018-07-31T13:12:19.546Z,41.80
2018-07-31T13:14:48.026Z,41.90
2018-07-31T13:17:16.496Z,42.00
2018-07-31T13:19:45.154Z,41.80
2018-07-31T13:22:13.653Z,41.90
2018-07-31T13:24:42.189Z,40.60
2018-07-31T13:27:10.674Z,41.50
2018-07-31T13:29:39.206Z,41.40
2018-07-31T13:32:07.931Z,41.30
2018-07-31T13:34:36.490Z,40.40
2018-07-31T13:37:05.076Z,40.70
2018-07-31T13:39:33.608Z,40.80
2018-07-31T13:42:02.245Z,41.10
2018-07-31T13:44:30.823Z,41.50
2018-07-31T13:46:59.959Z,42.30
2018-07-31T13:49:28.509Z,42.50
2018-07-31T13:51:57.022Z,42.70
2018-07-31T13:54:25.482Z,42.60
2018-07-31T13:56:54.009Z,42.10
2018-07-31T13:59:22.605Z,41.80
2018-07-31T14:01:51.170Z,42.40
2018-07-31T14:04:19.651Z,42.80
2018-07-31T14:06:48.284Z,43.70
2018-07-31T14:09:16.761Z,44.00
2018-07-31T14:11:45.297Z,44.60
2018-07-31T14:14:13.813Z,45.00
2018-07-31T14:16:42.321Z,44.90
2018-07-31T14:19:10.818Z,45.40
2018-07-31T14:21:39.377Z,45.90
2018-07-31T14:24:07.899Z,46.30
2018-07-31T14:26:36.441Z,46.10
2018-07-31T14:29:04.981Z,46.30
2018-07-31T14:31:33.519Z,45.90
2018-07-31T14:34:02.045Z,45.70
2018-07-31T14:36:30.661Z,45.90
2018-07-31T14:38:59.204Z,45.80
2018-07-31T14:41:27.745Z,45.70
2018-07-31T14:44:01.990Z,45.80
2018-07-31T14:46:30.485Z,45.70
2018-07-31T14:48:58.993Z,46.40
2018-07-31T14:51:27.558Z,45.60
2018-07-31T14:53:56.116Z,45.70
2018-07-31T14:56:24.677Z,46.00
2018-07-31T14:58:53.179Z,45.70
2018-07-31T15:01:21.673Z,45.80
2018-07-31T15:03:50.184Z,46.20
2018-07-31T15:06:18.691Z,46.10
2018-07-31T15:08:47.153Z,46.40
2018-07-31T15:11:15.994Z,46.70
2018-07-31T15:13:44.218Z,46.40
2018-07-31T15:16:12.749Z,46.50
2018-07-31T15:18:41.254Z,46.50
2018-07-31T15:21:09.864Z,46.40
2018-07-31T15:23:38.407Z,46.30
2018-07-31T15:26:07.005Z,46.00
2018-07-31T15:28:35.601Z,45.10
2018-07-31T15:31:04.108Z,45.40
2018-07-31T15:33:32.609Z,45.40
2018-07-31T15:36:01.097Z,45.80
2018-07-31T15:38:29.733Z,46.20
2018-07-31T15:40:58.237Z,46.20
2018-07-31T15:43:26.765Z,46.10
2018-07-31T15:45:55.430Z,45.70
2018-07-31T15:48:24.029Z,45.60
2018-07-31T15:50:52.600Z,45.70
2018-07-31T15:55:49.334Z,46.10
2018-07-31T15:58:17.857Z,46.20
2018-07-31T16:00:46.398Z,45.90
2018-07-31T16:03:14.910Z,44.90
2018-07-31T16:05:43.774Z,44.90
2018-07-31T16:08:12.302Z,44.60
2018-07-31T16:10:40.805Z,44.70
2018-07-31T16:13:09.297Z,44.80
2018-07-31T16:15:37.853Z,45.40
2018-07-31T16:18:06.385Z,44.90
2018-07-31T16:20:34.888Z,44.40
2018-07-31T16:23:03.417Z,44.10
2018-07-31T16:25:31.989Z,43.20
2018-07-31T16:28:00.505Z,43.40
2018-07-31T16:30:28.992Z,43.80
2018-07-31T16:32:57.548Z,43.40
2018-07-31T16:35:26.009Z,44.30
2018-07-31T16:37:54.525Z,44.10
2018-07-31T16:40:23.087Z,43.00
2018-07-31T16:42:51.618Z,42.50
2018-07-31T16:45:20.207Z,42.20
2018-07-31T16:47:48.695Z,42.30
2018-07-31T16:50:17.224Z,42.00
2018-07-31T16:52:45.749Z,41.50
2018-07-31T16:55:14.306Z,41.50
2018-07-31T16:57:42.813Z,41.10
2018-07-31T17:00:11.345Z,40.80
2018-07-31T17:02:39.868Z,40.70
2018-07-31T17:05:08.457Z,40.60
2018-07-31T17:07:36.941Z,41.60
2018-07-31T17:10:05.689Z,41.10
2018-07-31T17:12:34.257Z,41.60
2018-07-31T17:15:02.753Z,42.00
2018-07-31T17:17:31.429Z,41.30
2018-07-31T17:19:59.943Z,41.70
2018-07-31T17:22:28.497Z,41.60
2018-07-31T17:24:56.971Z,41.70
2018-07-31T17:27:25.486Z,42.40
2018-07-31T17:29:53.955Z,41.90
2018-07-31T17:32:22.486Z,42.00
2018-07-31T17:34:51.003Z,42.30
2018-07-31T17:37:19.548Z,42.50
2018-07-31T17:39:48.072Z,42.60
2018-07-31T17:42:16.664Z,43.10
2018-07-31T17:44:45.166Z,43.30
2018-07-31T17:47:13.670Z,43.50
2018-07-31T17:49:42.129Z,43.60
2018-07-31T17:52:10.641Z,43.80
2018-07-31T17:54:39.128Z,43.90
2018-07-31T17:57:07.689Z,44.00
2018-07-31T17:59:36.156Z,44.10
2018-07-31T18:02:04.729Z,44.00
2018-07-31T18:04:33.714Z,44.30
2018-07-31T18:07:02.553Z,44.30
2018-07-31T18:09:31.093Z,44.50
2018-07-31T18:11:59.581Z,44.60
2018-07-31T18:14:28.113Z,44.80
2018-07-31T18:16:56.641Z,44.90
2018-07-31T18:19:25.117Z,45.40
2018-07-31T18:21:53.655Z,45.50
2018-07-31T18:24:22.130Z,45.90
2018-07-31T18:26:50.665Z,46.10
2018-07-31T18:29:19.226Z,46.50
2018-07-31T18:31:47.800Z,46.50
2018-07-31T18:34:16.313Z,46.70
2018-07-31T18:36:44.801Z,46.80
2018-07-31T18:39:18.377Z,47.10
2018-07-31T18:41:49.715Z,47.50
2018-07-31T18:44:18.689Z,47.50
2018-07-31T18:46:47.546Z,47.60
2018-07-31T18:49:16.238Z,47.50
2018-07-31T18:51:45.494Z,47.60
2018-07-31T18:54:14.458Z,47.90
2018-07-31T18:56:43.911Z,48.10
2018-07-31T18:59:13.142Z,48.20
2018-07-31T19:01:42.046Z,48.40
2018-07-31T19:04:10.951Z,49.00
2018-07-31T19:06:39.706Z,49.20
2018-07-31T19:09:12.298Z,49.20
2018-07-31T19:11:41.945Z,49.40
2018-07-31T19:14:10.586Z,49.30
2018-07-31T19:16:39.892Z,49.70
2018-07-31T19:19:08.409Z,49.80
2018-07-31T19:21:37.413Z,49.80
2018-07-31T19:24:05.957Z,49.80
2018-07-31T19:26:34.454Z,50.10
2018-07-31T19:29:04.950Z,50.30
2018-07-31T19:31:33.481Z,50.60
2018-07-31T19:34:02.474Z,50.70
2018-07-31T19:36:38.658Z,51.00
2018-07-31T19:39:08.113Z,51.00
2018-07-31T19:41:36.650Z,51.10
2018-07-31T19:44:05.389Z,52.10
2018-07-31T19:46:33.953Z,51.30
2018-07-31T19:49:02.477Z,51.60
2018-07-31T19:51:30.936Z,51.70
2018-07-31T19:53:59.513Z,51.80
2018-07-31T19:56:28.119Z,51.90
2018-07-31T19:58:57.105Z,51.80
2018-07-31T20:01:25.599Z,51.90
2018-07-31T20:03:54.206Z,52.10
2018-07-31T20:06:22.703Z,52.20
2018-07-31T20:08:51.236Z,52.60
2018-07-31T20:11:20.926Z,52.60
2018-07-31T20:13:49.526Z,52.80
2018-07-31T20:16:18.789Z,53.10
2018-07-31T20:18:47.482Z,53.20
2018-07-31T20:21:15.974Z,53.80
2018-07-31T20:23:44.524Z,54.00
2018-07-31T20:26:13.061Z,54.70
2018-07-31T20:28:41.545Z,55.10
2018-07-31T20:31:10.144Z,55.50
2018-07-31T20:33:38.629Z,56.00
2018-07-31T20:36:08.172Z,56.90
2018-07-31T20:38:36.817Z,57.30
2018-07-31T20:41:05.418Z,57.80
2018-07-31T20:43:34.047Z,58.10
2018-07-31T20:46:02.974Z,58.50
2018-07-31T20:48:32.519Z,59.40
2018-07-31T20:51:02.764Z,59.30
2018-07-31T20:53:31.731Z,59.70
2018-07-31T20:56:00.326Z,60.00
2018-07-31T20:58:28.828Z,60.30
2018-07-31T21:00:57.877Z,61.00
2018-07-31T21:03:29.951Z,61.10
2018-07-31T21:06:02.573Z,61.60
2018-07-31T21:08:31.244Z,61.80
2018-07-31T21:10:59.998Z,61.90
2018-07-31T21:13:31.217Z,62.40
2018-07-31T21:15:59.697Z,63.00
2018-07-31T21:18:28.299Z,63.10
2018-07-31T21:20:57.657Z,63.30
2018-07-31T21:23:26.529Z,63.60
2018-07-31T21:25:55.025Z,64.10
2018-07-31T21:28:24.553Z,64.40
2018-07-31T21:30:53.049Z,64.60
2018-07-31T21:35:49.969Z,65.00
2018-07-31T21:38:18.567Z,65.30
2018-07-31T21:40:47.169Z,65.60
2018-07-31T21:43:15.713Z,66.00
2018-07-31T21:45:44.261Z,66.10
2018-07-31T21:48:12.830Z,66.30
2018-07-31T21:50:41.314Z,66.60
2018-07-31T21:53:09.818Z,66.80
2018-07-31T21:55:38.373Z,67.40
2018-07-31T21:58:06.921Z,68.50
2018-07-31T22:00:40.706Z,68.10
2018-07-31T22:03:09.202Z,68.10
2018-07-31T22:08:05.937Z,69.00
2018-07-31T22:10:34.512Z,69.10
2018-07-31T22:13:03.029Z,69.50
2018-07-31T22:15:31.558Z,69.90
2018-07-31T22:18:00.091Z,70.30
2018-07-31T22:20:28.630Z,70.50
2018-07-31T22:22:57.195Z,71.10
2018-07-31T22:25:25.685Z,71.60
2018-07-31T22:27:54.222Z,72.10
2018-07-31T22:30:22.690Z,72.50
2018-07-31T22:32:51.185Z,73.00
2018-07-31T22:35:19.684Z,73.50
2018-07-31T22:37:48.253Z,74.10
2018-07-31T22:40:16.801Z,74.60
2018-07-31T22:42:45.297Z,75.30
2018-07-31T22:45:13.816Z,75.50
2018-07-31T22:47:42.336Z,76.20
2018-07-31T22:50:10.854Z,76.60
2018-07-31T22:52:39.336Z,76.80
2018-07-31T22:55:07.816Z,77.30
2018-07-31T22:57:36.325Z,77.70
2018-07-31T23:00:05.601Z,78.10
2018-07-31T23:02:34.163Z,78.70
2018-07-31T23:05:02.647Z,78.80
2018-07-31T23:07:31.185Z,79.10
2018-07-31T23:10:03.573Z,79.30
2018-07-31T23:15:02.023Z,80.30
2018-07-31T23:17:31.229Z,80.70
2018-07-31T23:20:01.933Z,81.30
2018-07-31T23:22:44.022Z,81.50
2018-07-31T23:25:12.584Z,81.80
2018-07-31T23:27:41.061Z,82.20
2018-07-31T23:30:09.957Z,82.60
2018-07-31T23:32:38.981Z,83.00
2018-07-31T23:35:07.597Z,83.60
2018-07-31T23:37:36.082Z,84.10
2018-07-31T23:40:05.504Z,84.40
2018-07-31T23:42:34.026Z,85.10
2018-07-31T23:45:02.566Z,85.50
2018-07-31T23:47:31.560Z,85.80
2018-07-31T23:50:01.005Z,86.10
2018-07-31T23:52:29.757Z,86.20
2018-07-31T23:54:58.340Z,86.30
2018-07-31T23:57:26.906Z,86.70
2018-07-31T23:59:55.457Z,87.10
